Time;durP1;ratioP1;P1;durP2;ratioP2;P2;SDS_P1;SDS_P2;PMS_P1;PMS_P2;Temp;Humidity;BMP_temperature;BMP_pressure;BME280_temperature;BME280_humidity;BME280_pressure;Samples;Min_cycle;Max_cycle;Signal;HPM_P1;HPM_P2
2022/09/15 00:01:14;;;;;;;9.23;4.60;;;13.70;99.90;;;;;;5030354;28;20064;-75
2022/09/15 00:03:41;;;;;;;8.00;3.88;;;13.60;99.90;;;;;;5030807;28;20041;-75
2022/09/15 00:06:07;;;;;;;6.85;3.28;;;13.60;99.90;;;;;;5030643;28;20053;-74
2022/09/15 00:08:33;;;;;;;9.35;3.00;;;13.70;99.90;;;;;;5030634;28;20049;-75
2022/09/15 00:11:08;;;;;;;5.57;2.72;;;13.70;99.90;;;;;;5030700;28;20099;-76
2022/09/15 00:13:36;;;;;;;12.00;2.72;;;13.70;99.90;;;;;;5031255;28;20059;-75
2022/09/15 00:16:03;;;;;;;6.90;2.60;;;13.80;99.90;;;;;;5049706;28;20076;-77
2022/09/15 00:18:29;;;;;;;6.70;1.98;;;13.80;99.90;;;;;;5048772;28;20037;-76
2022/09/15 00:20:55;;;;;;;9.48;1.92;;;14.00;99.90;;;;;;5050199;28;20061;-76
2022/09/15 00:23:20;;;;;;;12.85;2.30;;;13.90;99.90;;;;;;5049501;28;20151;-77
2022/09/15 00:25:48;;;;;;;9.45;2.10;;;13.90;99.90;;;;;;5030339;28;20057;-75
2022/09/15 00:28:21;;;;;;;5.88;1.95;;;13.90;99.90;;;;;;5030228;28;20077;-76
2022/09/15 00:30:48;;;;;;;6.18;1.60;;;14.00;99.90;;;;;;5029992;28;20045;-77
2022/09/15 00:33:15;;;;;;;9.30;1.77;;;14.00;99.90;;;;;;5030361;28;20041;-77
2022/09/15 00:35:43;;;;;;;6.05;1.42;;;14.00;99.90;;;;;;5028829;28;20085;-76
2022/09/15 00:38:09;;;;;;;8.85;1.92;;;14.10;99.90;;;;;;5029945;28;20048;-76
2022/09/15 00:40:50;;;;;;;5.60;1.85;;;14.00;99.90;;;;;;5028621;28;20136;-76
2022/09/15 00:43:17;;;;;;;5.25;1.67;;;14.10;99.90;;;;;;5030111;28;20450;-76
2022/09/15 00:45:43;;;;;;;6.80;1.73;;;14.10;99.90;;;;;;5030249;28;20423;-75
2022/09/15 00:48:13;;;;;;;7.47;2.33;;;14.10;99.90;;;;;;5029652;28;20049;-76
2022/09/15 00:50:42;;;;;;;6.00;2.35;;;14.20;99.90;;;;;;5030091;28;20060;-75
2022/09/15 00:53:09;;;;;;;6.07;2.20;;;14.10;99.90;;;;;;5030253;28;20045;-75
2022/09/15 00:55:43;;;;;;;8.27;2.55;;;14.00;99.90;;;;;;5030932;28;20049;-76
2022/09/15 00:58:35;;;;;;;6.15;2.60;;;14.00;99.90;;;;;;5030043;28;20053;-77
2022/09/15 01:01:03;;;;;;;6.82;2.25;;;14.00;99.90;;;;;;5029218;28;20057;-76
2022/09/15 01:03:31;;;;;;;11.00;3.13;;;14.00;99.90;;;;;;5029525;28;20103;-77
2022/09/15 01:06:13;;;;;;;9.45;3.05;;;14.00;99.90;;;;;;5029985;28;20488;-77
2022/09/15 01:08:47;;;;;;;10.27;3.55;;;14.10;99.90;;;;;;5010058;28;20042;-76
2022/09/15 01:11:15;;;;;;;8.00;3.55;;;14.10;99.90;;;;;;5010172;28;20068;-77
2022/09/15 01:13:42;;;;;;;12.50;3.78;;;14.00;99.90;;;;;;5010056;28;20060;-77
2022/09/15 01:16:44;;;;;;;8.13;3.40;;;14.00;99.90;;;;;;5010267;28;20050;-77
2022/09/15 01:19:50;;;;;;;9.68;3.97;;;14.00;99.90;;;;;;5008311;28;20045;-77
2022/09/15 01:22:34;;;;;;;;;;;13.90;99.90;;;;;;5010385;28;20104;-77
2022/09/15 01:25:09;;;;;;;8.23;3.70;;;13.90;99.90;;;;;;5010603;28;19918;-76
2022/09/15 01:27:43;;;;;;;11.30;4.18;;;13.90;99.90;;;;;;5010244;28;20400;-76
2022/09/15 01:30:36;;;;;;;8.68;3.55;;;13.80;99.90;;;;;;5010147;28;20137;-77
2022/09/15 01:33:04;;;;;;;7.30;3.30;;;13.90;99.90;;;;;;5008937;28;20066;-77
2022/09/15 01:35:53;;;;;;;7.15;3.22;;;13.80;99.90;;;;;;5009884;28;20516;-77
2022/09/15 01:38:38;;;;;;;7.75;3.20;;;13.90;99.90;;;;;;5025155;28;20415;-77
2022/09/15 01:41:16;;;;;;;10.43;3.45;;;13.80;99.90;;;;;;5026785;28;20127;-76
2022/09/15 01:43:58;;;;;;;8.32;3.50;;;13.90;99.90;;;;;;5010453;28;20068;-76
2022/09/15 01:46:28;;;;;;;7.20;3.25;;;13.70;99.90;;;;;;5010648;28;20103;-76
2022/09/15 01:48:55;;;;;;;7.10;3.03;;;13.70;99.90;;;;;;5026597;28;20123;-76
2022/09/15 01:51:24;;;;;;;7.32;3.20;;;13.70;99.90;;;;;;5020075;28;20103;-76
2022/09/15 01:53:52;;;;;;;9.05;3.30;;;13.60;99.90;;;;;;5007338;28;20053;-76
2022/09/15 01:56:18;;;;;;;9.25;3.58;;;13.70;99.90;;;;;;5007097;28;20082;-77
2022/09/15 01:58:44;;;;;;;10.07;2.38;;;13.70;99.90;;;;;;5007572;28;20053;-77
2022/09/15 02:01:33;;;;;;;14.98;2.83;;;13.70;99.90;;;;;;5016622;28;20081;-77
2022/09/15 02:04:28;;;;;;;7.45;1.80;;;13.70;99.90;;;;;;5030537;28;20103;-76
2022/09/15 02:07:34;;;;;;;11.90;1.75;;;13.80;99.90;;;;;;5030058;28;20096;-75
2022/09/15 02:10:23;;;;;;;10.68;1.30;;;13.80;99.90;;;;;;4952259;29;20094;-77
2022/09/15 02:13:05;;;;;;;9.02;1.30;;;13.80;99.90;;;;;;4942884;29;20074;-75
2022/09/15 02:15:50;;;;;;;9.18;1.08;;;13.90;99.90;;;;;;4939469;28;20185;-74
2022/09/15 02:18:44;;;;;;;10.52;1.33;;;13.90;99.90;;;;;;4936123;29;20400;-75
2022/09/15 02:21:39;;;;;;;8.85;1.70;;;13.90;99.90;;;;;;4973147;28;20066;-77
2022/09/15 02:24:11;;;;;;;10.38;1.17;;;13.90;99.90;;;;;;4971213;28;20101;-74
2022/09/15 02:26:39;;;;;;;6.20;1.00;;;13.90;99.90;;;;;;4971017;28;20063;-75
2022/09/15 02:29:08;;;;;;;9.90;1.60;;;13.90;99.90;;;;;;4983915;28;20053;-77
2022/09/15 02:31:38;;;;;;;12.38;1.52;;;14.00;99.90;;;;;;4988693;28;20081;-73
2022/09/15 02:34:09;;;;;;;7.10;1.63;;;13.80;99.90;;;;;;4990452;28;20481;-77
2022/09/15 02:36:35;;;;;;;6.68;0.98;;;14.00;99.90;;;;;;4988334;28;20092;-76
2022/09/15 02:39:06;;;;;;;6.10;0.90;;;14.10;99.90;;;;;;4990440;28;20117;-74
2022/09/15 02:41:34;;;;;;;5.47;0.90;;;13.90;99.90;;;;;;4989982;28;20413;-76
2022/09/15 02:44:00;;;;;;;9.23;1.13;;;14.00;99.90;;;;;;5006949;28;20574;-75
2022/09/15 02:46:26;;;;;;;9.85;0.98;;;13.90;99.90;;;;;;5031877;28;20130;-75
2022/09/15 02:48:52;;;;;;;9.63;0.90;;;13.90;99.90;;;;;;5032144;28;20053;-75
2022/09/15 02:51:18;;;;;;;5.18;0.80;;;13.90;99.90;;;;;;5030386;28;20064;-75
2022/09/15 02:53:45;;;;;;;6.65;0.95;;;13.90;99.90;;;;;;5032012;28;20053;-76
2022/09/15 02:56:11;;;;;;;7.45;0.95;;;13.80;99.90;;;;;;5037065;28;20044;-76
2022/09/15 02:58:36;;;;;;;10.05;1.15;;;13.90;99.90;;;;;;5051714;28;20044;-76
2022/09/15 03:01:04;;;;;;;8.20;1.20;;;13.90;99.90;;;;;;5051584;28;20457;-75
2022/09/15 03:03:31;;;;;;;8.32;1.15;;;13.90;99.90;;;;;;5036022;28;20042;-75
2022/09/15 03:06:15;;;;;;;6.72;1.08;;;13.90;99.90;;;;;;5012234;28;20054;-76
2022/09/15 03:08:55;;;;;;;8.45;1.63;;;14.00;99.90;;;;;;5022394;28;20092;-75
2022/09/15 03:11:23;;;;;;;5.57;1.00;;;13.90;99.90;;;;;;5031440;28;20550;-76
2022/09/15 03:13:53;;;;;;;7.10;0.80;;;13.90;99.90;;;;;;5031183;28;20087;-76
2022/09/15 03:16:19;;;;;;;8.48;0.90;;;13.80;99.90;;;;;;5050730;28;20041;-75
2022/09/15 03:18:44;;;;;;;7.07;1.13;;;13.80;99.90;;;;;;5051137;28;20045;-75
2022/09/15 03:21:13;;;;;;;8.15;1.00;;;13.80;99.90;;;;;;5031768;28;20049;-76
2022/09/15 03:23:39;;;;;;;3.90;0.80;;;13.80;99.90;;;;;;5031198;28;20083;-76
2022/09/15 03:26:06;;;;;;;4.97;0.85;;;13.90;99.90;;;;;;5042852;28;20154;-77
2022/09/15 03:28:32;;;;;;;6.60;0.90;;;13.90;99.90;;;;;;5031794;28;20057;-75
2022/09/15 03:30:58;;;;;;;6.82;1.08;;;13.80;99.90;;;;;;5031321;28;20032;-75
2022/09/15 03:33:24;;;;;;;8.27;1.02;;;13.80;99.90;;;;;;5031370;28;20459;-76
2022/09/15 03:35:50;;;;;;;7.28;0.95;;;13.90;99.90;;;;;;5030235;28;20045;-75
2022/09/15 03:38:16;;;;;;;3.28;0.90;;;13.80;99.90;;;;;;5031029;28;20226;-77
2022/09/15 03:40:43;;;;;;;8.35;1.05;;;13.80;99.90;;;;;;5030915;28;20158;-76
2022/09/15 03:43:10;;;;;;;7.55;1.65;;;13.80;99.90;;;;;;5047805;28;20032;-77
2022/09/15 03:45:38;;;;;;;5.55;0.90;;;13.80;99.90;;;;;;5048979;28;20045;-77
2022/09/15 03:48:05;;;;;;;5.22;0.95;;;13.70;99.90;;;;;;5050855;28;20045;-77
2022/09/15 03:50:32;;;;;;;5.80;0.75;;;13.80;99.90;;;;;;5051073;28;20040;-77
2022/09/15 03:53:00;;;;;;;3.75;0.85;;;13.80;99.90;;;;;;5050968;28;20089;-75
2022/09/15 03:55:27;;;;;;;3.85;0.85;;;13.70;99.90;;;;;;5050321;28;20559;-76
2022/09/15 03:57:53;;;;;;;6.28;0.75;;;13.70;99.90;;;;;;5050931;28;20041;-77
2022/09/15 04:00:19;;;;;;;3.38;0.85;;;13.80;99.90;;;;;;5050711;28;20526;-77
2022/09/15 04:02:44;;;;;;;8.13;1.23;;;13.60;99.90;;;;;;5050610;28;20041;-77
2022/09/15 04:05:12;;;;;;;5.13;0.82;;;13.70;99.90;;;;;;5050624;28;20037;-77
2022/09/15 04:07:38;;;;;;;7.38;1.00;;;13.70;99.90;;;;;;5050247;28;20120;-77
2022/09/15 04:10:05;;;;;;;10.05;1.10;;;13.60;99.90;;;;;;5050138;28;20511;-78
2022/09/15 04:12:31;;;;;;;5.20;0.85;;;13.60;99.90;;;;;;5050307;28;20049;-77
2022/09/15 04:14:57;;;;;;;9.90;1.98;;;13.50;99.90;;;;;;5040033;28;20171;-76
2022/09/15 04:17:22;;;;;;;7.40;1.00;;;13.50;99.90;;;;;;5033691;28;20049;-77
2022/09/15 04:19:48;;;;;;;5.78;0.70;;;13.40;99.90;;;;;;5030463;28;20088;-76
2022/09/15 04:22:14;;;;;;;8.85;0.95;;;13.50;99.90;;;;;;5049946;28;20049;-77
2022/09/15 04:24:39;;;;;;;12.07;1.23;;;13.40;99.90;;;;;;5041321;28;20083;-76
2022/09/15 04:27:05;;;;;;;6.20;1.30;;;13.40;99.90;;;;;;5028282;28;20088;-77
2022/09/15 04:29:30;;;;;;;5.05;1.00;;;13.50;99.90;;;;;;5031862;28;20084;-77
2022/09/15 04:31:56;;;;;;;6.70;1.10;;;13.60;99.90;;;;;;5030547;28;20467;-75
2022/09/15 04:34:23;;;;;;;8.25;1.10;;;13.30;99.90;;;;;;5029041;28;20092;-77
2022/09/15 04:36:49;;;;;;;12.63;1.27;;;13.30;99.90;;;;;;5030365;28;20049;-76
2022/09/15 04:39:14;;;;;;;6.97;0.85;;;13.30;99.90;;;;;;5029900;28;20052;-77
2022/09/15 04:41:40;;;;;;;9.27;1.27;;;13.60;99.90;;;;;;5030685;28;20048;-77
2022/09/15 04:44:06;;;;;;;7.03;0.93;;;13.40;99.90;;;;;;5046899;28;20430;-76
2022/09/15 04:46:31;;;;;;;10.80;1.33;;;13.40;99.90;;;;;;5049042;28;20644;-77
2022/09/15 04:48:57;;;;;;;7.10;1.25;;;13.30;99.90;;;;;;5050135;28;20049;-77
2022/09/15 04:51:23;;;;;;;8.02;1.08;;;13.40;99.90;;;;;;5049557;28;20132;-77
2022/09/15 04:53:50;;;;;;;5.95;1.30;;;13.30;99.90;;;;;;5049822;28;20505;-77
2022/09/15 04:56:19;;;;;;;9.55;0.90;;;13.30;99.90;;;;;;5049572;28;20057;-77
2022/09/15 04:58:48;;;;;;;10.90;1.20;;;13.30;99.90;;;;;;5033387;28;20575;-76
2022/09/15 05:01:16;;;;;;;6.57;1.02;;;13.30;99.90;;;;;;5029770;28;20125;-77
2022/09/15 05:03:43;;;;;;;9.13;1.58;;;13.30;99.90;;;;;;5029943;28;20080;-76
2022/09/15 05:06:11;;;;;;;8.85;1.23;;;13.30;99.90;;;;;;5030091;28;20045;-77
2022/09/15 05:08:37;;;;;;;9.07;1.45;;;13.30;99.90;;;;;;5029524;28;20038;-76
2022/09/15 05:11:11;;;;;;;8.35;1.98;;;13.20;99.90;;;;;;5029813;28;20091;-77
2022/09/15 05:13:37;;;;;;;8.37;1.07;;;13.20;99.90;;;;;;5028133;28;20087;-76
2022/09/15 05:16:07;;;;;;;11.90;1.20;;;13.20;99.90;;;;;;5033063;28;20103;-76
2022/09/15 05:18:33;;;;;;;4.45;0.80;;;13.10;99.90;;;;;;5042941;28;20041;-77
2022/09/15 05:21:00;;;;;;;8.13;0.98;;;13.10;99.90;;;;;;5033766;28;20049;-76
2022/09/15 05:23:26;;;;;;;5.60;1.02;;;13.00;99.90;;;;;;5029592;28;20049;-77
2022/09/15 05:25:56;;;;;;;6.95;1.42;;;13.00;99.90;;;;;;5029477;28;20064;-77
2022/09/15 05:28:23;;;;;;;6.88;0.98;;;13.00;99.90;;;;;;5027486;28;20087;-76
2022/09/15 05:30:52;;;;;;;7.03;1.00;;;13.00;99.90;;;;;;5048291;28;20045;-76
2022/09/15 05:33:19;;;;;;;5.80;0.90;;;12.90;99.90;;;;;;5049507;28;20057;-76
2022/09/15 05:35:55;;;;;;;10.90;1.20;;;12.90;99.90;;;;;;5053002;28;20070;-76
2022/09/15 05:38:22;;;;;;;8.05;1.00;;;12.90;99.90;;;;;;5052556;28;20523;-76
2022/09/15 05:40:48;;;;;;;6.80;1.00;;;12.90;99.90;;;;;;5050264;28;20084;-77
2022/09/15 05:43:14;;;;;;;7.32;1.15;;;12.80;99.90;;;;;;5032981;28;20496;-76
2022/09/15 05:45:43;;;;;;;5.40;0.90;;;12.80;99.90;;;;;;5033097;28;20046;-77
2022/09/15 05:48:10;;;;;;;6.45;1.02;;;12.80;99.90;;;;;;5032285;28;20041;-77
2022/09/15 05:50:37;;;;;;;7.78;1.02;;;12.80;99.90;;;;;;5033149;28;20048;-77
2022/09/15 05:53:03;;;;;;;9.32;1.17;;;12.70;99.90;;;;;;5033482;28;20092;-76
2022/09/15 05:55:29;;;;;;;8.68;1.17;;;12.80;99.90;;;;;;5033207;28;20049;-77
2022/09/15 05:57:55;;;;;;;10.68;1.15;;;12.80;99.90;;;;;;5033113;28;20499;-76
2022/09/15 06:00:21;;;;;;;9.43;1.20;;;12.80;99.90;;;;;;5032698;28;20038;-77
2022/09/15 06:02:46;;;;;;;10.38;1.00;;;12.80;99.90;;;;;;5033001;28;20076;-76
2022/09/15 06:05:12;;;;;;;6.88;1.13;;;12.90;99.90;;;;;;5032945;28;20064;-77
2022/09/15 06:07:38;;;;;;;6.50;1.23;;;12.90;99.90;;;;;;5033046;28;20223;-77
2022/09/15 06:10:04;;;;;;;4.95;0.93;;;12.90;99.90;;;;;;5033036;28;20045;-75
2022/09/15 06:12:29;;;;;;;12.75;1.48;;;13.00;99.90;;;;;;5033090;28;20507;-76
2022/09/15 06:14:55;;;;;;;7.13;1.00;;;13.00;99.90;;;;;;5032155;28;20080;-75
2022/09/15 06:17:22;;;;;;;7.95;1.30;;;13.00;99.90;;;;;;5035072;28;20047;-75
2022/09/15 06:19:47;;;;;;;5.88;0.93;;;13.10;99.90;;;;;;5052252;28;20045;-76
2022/09/15 06:22:13;;;;;;;4.53;1.02;;;13.20;99.90;;;;;;5052249;28;20056;-76
2022/09/15 06:24:39;;;;;;;6.57;1.10;;;13.20;99.90;;;;;;5052395;28;20450;-75
2022/09/15 06:27:05;;;;;;;9.23;1.27;;;13.30;99.90;;;;;;5052337;28;20053;-75
2022/09/15 06:29:31;;;;;;;10.40;1.20;;;13.30;99.90;;;;;;5052303;28;20048;-76
2022/09/15 06:32:01;;;;;;;10.18;1.48;;;13.30;99.90;;;;;;5051653;28;20501;-76
2022/09/15 06:34:28;;;;;;;11.32;1.02;;;13.30;99.90;;;;;;5052365;28;20053;-76
2022/09/15 06:36:54;;;;;;;7.18;1.00;;;13.30;99.90;;;;;;5051974;28;20053;-77
2022/09/15 06:39:19;;;;;;;6.18;1.00;;;13.40;99.90;;;;;;5052043;28;20048;-76
2022/09/15 06:41:45;;;;;;;12.75;1.30;;;13.50;99.90;;;;;;5039158;28;20111;-75
2022/09/15 06:44:11;;;;;;;11.43;1.15;;;13.50;99.90;;;;;;5032238;28;20357;-76
2022/09/15 06:46:37;;;;;;;13.95;1.60;;;13.60;99.90;;;;;;5031594;28;20050;-74
2022/09/15 06:49:03;;;;;;;7.32;0.90;;;13.60;99.90;;;;;;5032348;28;20053;-76
2022/09/15 06:51:34;;;;;;;9.25;1.10;;;13.70;99.90;;;;;;5030973;28;20501;-76
2022/09/15 06:54:00;;;;;;;7.78;1.55;;;13.70;99.90;;;;;;5031883;28;20782;-75
2022/09/15 06:56:26;;;;;;;10.15;1.30;;;13.80;99.90;;;;;;5033075;28;20048;-75
2022/09/15 06:58:52;;;;;;;6.80;0.90;;;13.80;99.90;;;;;;5032137;28;20056;-77
2022/09/15 07:01:27;;;;;;;8.68;1.23;;;13.90;99.90;;;;;;5035276;28;20049;-76
2022/09/15 07:03:54;;;;;;;9.73;1.15;;;13.90;99.90;;;;;;5032148;28;20084;-75
2022/09/15 07:06:20;;;;;;;5.70;1.38;;;14.00;99.90;;;;;;5031691;28;20484;-75
2022/09/15 07:08:47;;;;;;;12.25;1.17;;;14.20;99.90;;;;;;5011841;28;20056;-76
2022/09/15 07:11:13;;;;;;;8.68;1.27;;;14.10;99.90;;;;;;5010817;28;20053;-75
2022/09/15 07:13:39;;;;;;;11.52;1.30;;;14.20;99.90;;;;;;5016172;28;20052;-76
2022/09/15 07:16:07;;;;;;;11.55;1.30;;;14.40;99.90;;;;;;5031733;28;20052;-75
2022/09/15 07:18:33;;;;;;;11.90;1.33;;;14.30;99.90;;;;;;5031603;28;20093;-77
2022/09/15 07:21:05;;;;;;;8.82;1.02;;;14.30;99.90;;;;;;5032525;28;20049;-76
2022/09/15 07:23:31;;;;;;;6.80;1.02;;;14.40;99.90;;;;;;5031278;28;20073;-77
2022/09/15 07:26:13;;;;;;;12.15;1.30;;;14.70;99.90;;;;;;5031415;28;20432;-76
2022/09/15 07:28:41;;;;;;;11.07;1.00;;;14.60;99.90;;;;;;5031331;28;20088;-75
2022/09/15 07:31:08;;;;;;;6.68;0.80;;;14.60;99.90;;;;;;5030868;28;20476;-77
2022/09/15 07:33:34;;;;;;;6.63;0.70;;;14.70;99.90;;;;;;5029752;28;20489;-77
2022/09/15 07:36:04;;;;;;;6.13;0.95;;;14.80;99.90;;;;;;5032133;28;20033;-76
2022/09/15 07:38:29;;;;;;;5.97;0.80;;;14.90;99.90;;;;;;5031105;28;20092;-75
2022/09/15 07:41:02;;;;;;;8.68;1.27;;;15.00;99.90;;;;;;5031095;28;20064;-78
2022/09/15 07:43:27;;;;;;;5.15;0.75;;;15.00;99.90;;;;;;5031811;28;20120;-77
2022/09/15 07:45:56;;;;;;;5.57;0.90;;;15.10;99.90;;;;;;5031796;28;20180;-77
2022/09/15 07:48:22;;;;;;;5.47;0.50;;;15.10;99.90;;;;;;5025859;28;20775;-75
2022/09/15 07:50:48;;;;;;;5.90;1.00;;;15.20;99.90;;;;;;5011050;28;20041;-75
2022/09/15 07:53:13;;;;;;;5.85;0.63;;;15.30;99.90;;;;;;5024244;28;20045;-74
2022/09/15 07:55:39;;;;;;;5.57;0.82;;;15.40;99.90;;;;;;5030798;28;20042;-73
2022/09/15 07:58:04;;;;;;;6.50;1.05;;;15.30;99.90;;;;;;5028841;28;20049;-76
2022/09/15 08:00:30;;;;;;;6.75;0.90;;;15.30;99.90;;;;;;5030693;28;20065;-73
2022/09/15 08:02:56;;;;;;;10.02;1.08;;;15.40;99.90;;;;;;5030485;28;20041;-74
2022/09/15 08:05:26;;;;;;;6.68;0.90;;;15.30;99.90;;;;;;5030073;28;20041;-77
2022/09/15 08:07:53;;;;;;;9.27;1.05;;;15.40;99.90;;;;;;5030463;28;20049;-75
2022/09/15 08:10:19;;;;;;;3.50;0.73;;;15.40;99.90;;;;;;5030780;28;20053;-74
2022/09/15 08:12:44;;;;;;;5.90;0.77;;;15.40;99.90;;;;;;5029292;28;20440;-75
2022/09/15 08:15:10;;;;;;;11.55;1.33;;;15.60;99.90;;;;;;5030838;28;20395;-74
2022/09/15 08:17:36;;;;;;;9.38;1.00;;;15.80;99.90;;;;;;5030830;28;20037;-73
2022/09/15 08:20:02;;;;;;;5.70;1.45;;;16.00;99.90;;;;;;5029939;28;20072;-73
2022/09/15 08:22:28;;;;;;;8.60;1.02;;;16.20;99.90;;;;;;5030342;28;20493;-73
2022/09/15 08:24:53;;;;;;;10.65;0.98;;;16.40;99.90;;;;;;5028682;28;20080;-76
2022/09/15 08:27:19;;;;;;;2.67;0.60;;;16.70;99.90;;;;;;5048956;28;20088;-74
2022/09/15 08:29:45;;;;;;;4.38;1.00;;;16.80;99.90;;;;;;5032286;28;20096;-76
2022/09/15 08:32:10;;;;;;;7.45;0.93;;;16.80;99.90;;;;;;5010529;28;20041;-76
2022/09/15 08:34:36;;;;;;;9.52;1.20;;;16.80;99.90;;;;;;5010530;28;20053;-76
2022/09/15 08:37:02;;;;;;;5.03;0.90;;;16.80;99.90;;;;;;5009545;28;20052;-75
2022/09/15 08:39:27;;;;;;;8.20;1.10;;;16.80;99.90;;;;;;5010346;28;20045;-75
2022/09/15 08:41:54;;;;;;;8.02;1.10;;;16.80;99.90;;;;;;5009360;28;20049;-77
2022/09/15 08:44:41;;;;;;;7.45;1.27;;;16.90;99.90;;;;;;5010555;28;20053;-76
2022/09/15 08:47:23;;;;;;;11.13;1.20;;;16.70;99.90;;;;;;5010525;28;20054;-75
2022/09/15 08:50:27;;;;;;;5.25;0.80;;;16.60;99.90;;;;;;5010281;28;20046;-77
2022/09/15 08:52:56;;;;;;;6.45;1.00;;;16.60;99.90;;;;;;5010315;28;20108;-75
2022/09/15 08:55:44;;;;;;;7.30;1.25;;;16.60;99.90;;;;;;5010263;28;20057;-77
2022/09/15 08:58:19;;;;;;;7.43;0.80;;;16.50;99.90;;;;;;5010257;28;20161;-74
2022/09/15 09:00:50;;;;;;;8.55;1.42;;;16.50;99.90;;;;;;5010050;28;20520;-76
2022/09/15 09:03:31;;;;;;;4.68;1.15;;;16.50;99.90;;;;;;5010334;28;20054;-76
2022/09/15 09:06:13;;;;;;;9.50;1.48;;;16.90;99.90;;;;;;5009801;28;20211;-80
2022/09/15 09:08:41;;;;;;;6.40;1.10;;;17.20;99.90;;;;;;5012385;28;20049;-78
2022/09/15 09:11:16;;;;;;;7.60;0.82;;;17.40;99.90;;;;;;5014462;28;20057;-77
2022/09/15 09:13:45;;;;;;;3.47;0.73;;;17.50;99.90;;;;;;5014273;28;20045;-78
2022/09/15 09:16:23;;;;;;;7.00;1.17;;;17.80;99.90;;;;;;5014313;28;20042;-77
2022/09/15 09:19:02;;;;;;;4.55;1.02;;;17.80;99.90;;;;;;5014143;28;20096;-77
2022/09/15 09:21:34;;;;;;;7.35;0.88;;;17.70;99.90;;;;;;5013499;28;20089;-76
2022/09/15 09:24:04;;;;;;;7.35;0.70;;;17.60;99.90;;;;;;5012827;28;20046;-75
2022/09/15 09:26:34;;;;;;;7.10;0.80;;;17.50;99.90;;;;;;5013981;28;20104;-76
2022/09/15 09:29:10;;;;;;;3.20;0.82;;;17.50;99.90;;;;;;5014161;28;20053;-75
2022/09/15 09:31:36;;;;;;;6.30;0.68;;;17.30;99.90;;;;;;5012998;28;20109;-78
2022/09/15 09:34:25;;;;;;;3.92;0.65;;;17.20;99.90;;;;;;5013731;28;20052;-77
2022/09/15 09:36:57;;;;;;;7.95;1.00;;;17.10;99.90;;;;;;5011087;28;20072;-78
2022/09/15 09:39:24;;;;;;;7.55;0.98;;;17.10;99.90;;;;;;5011278;28;20061;-74
2022/09/15 09:41:50;;;;;;;5.78;0.90;;;17.00;99.90;;;;;;5011397;28;20089;-76
2022/09/15 09:44:16;;;;;;;5.38;0.70;;;16.80;99.90;;;;;;4994837;28;20129;-75
2022/09/15 09:46:42;;;;;;;3.78;0.55;;;16.70;99.90;;;;;;5011158;28;20046;-76
2022/09/15 09:49:21;;;;;;;4.18;0.70;;;16.80;99.90;;;;;;5010931;28;20536;-74
2022/09/15 09:51:58;;;;;;;5.13;0.70;;;16.80;99.90;;;;;;5010975;28;20041;-76
2022/09/15 09:54:27;;;;;;;5.28;0.77;;;16.70;99.90;;;;;;5010529;28;20061;-77
2022/09/15 09:56:55;;;;;;;6.28;0.90;;;16.70;99.90;;;;;;5010886;28;20533;-75
2022/09/15 09:59:29;;;;;;;3.65;0.68;;;16.70;99.90;;;;;;4994354;28;20107;-77
2022/09/15 10:02:09;;;;;;;4.80;0.55;;;16.80;99.90;;;;;;5010641;28;20054;-76
2022/09/15 10:04:46;;;;;;;6.68;0.70;;;17.00;99.90;;;;;;5010727;28;20088;-78
2022/09/15 10:07:14;;;;;;;3.40;0.55;;;17.30;99.90;;;;;;5010658;28;20065;-73
2022/09/15 10:09:57;;;;;;;3.88;1.10;;;17.30;99.90;;;;;;5010407;28;20046;-77
2022/09/15 10:12:37;;;;;;;4.45;0.70;;;17.60;99.90;;;;;;5010711;28;20908;-76
2022/09/15 10:15:06;;;;;;;3.95;0.68;;;17.70;99.90;;;;;;5012953;28;20086;-78
2022/09/15 10:17:34;;;;;;;5.35;0.80;;;18.00;99.90;;;;;;5012961;28;20139;-77
2022/09/15 10:20:02;;;;;;;4.47;1.25;;;18.10;99.90;;;;;;5012298;28;20057;-75
2022/09/15 10:22:36;;;;;;;2.65;0.65;;;18.10;99.90;;;;;;5013120;28;20397;-75
2022/09/15 10:25:22;;;;;;;4.65;0.88;;;18.30;99.90;;;;;;5012400;28;20042;-76
2022/09/15 10:28:10;;;;;;;7.57;0.70;;;18.40;99.90;;;;;;5012692;28;20042;-76
2022/09/15 10:30:37;;;;;;;6.88;1.02;;;18.70;99.90;;;;;;5012632;28;20082;-78
2022/09/15 10:33:25;;;;;;;5.25;0.70;;;18.50;99.90;;;;;;5012800;28;20472;-74
2022/09/15 10:35:53;;;;;;;8.85;0.95;;;18.30;99.90;;;;;;5012633;28;20042;-76
2022/09/15 10:38:56;;;;;;;7.78;1.00;;;17.90;99.90;;;;;;5011244;28;20054;-76
2022/09/15 10:41:39;;;;;;;5.13;0.50;;;17.60;99.90;;;;;;5016503;28;20075;-74
2022/09/15 10:44:36;;;;;;;4.68;0.60;;;17.60;99.90;;;;;;5007680;28;20042;-77
2022/09/15 10:47:10;;;;;;;4.63;0.80;;;17.50;99.90;;;;;;5032165;28;20090;-73
2022/09/15 10:50:00;;;;;;;4.50;0.60;;;17.50;99.90;;;;;;5031551;28;20052;-72
2022/09/15 10:52:32;;;;;;;4.25;0.68;;;17.70;99.90;;;;;;5021709;28;20132;-75
2022/09/15 10:55:27;;;;;;;3.78;0.70;;;17.90;99.90;;;;;;5031808;28;20075;-76
2022/09/15 10:57:58;;;;;;;;;;;18.00;99.90;;;;;;4951666;29;20566;-74
2022/09/15 11:00:29;;;;;;;2.95;0.40;;;18.00;99.90;;;;;;4970333;28;19922;-75
2022/09/15 11:03:03;;;;;;;6.95;0.60;;;18.00;99.90;;;;;;4970732;28;20055;-76
2022/09/15 11:05:42;;;;;;;3.50;0.47;;;18.00;99.90;;;;;;4954901;28;20126;-75
2022/09/15 11:08:32;;;;;;;2.33;0.45;;;17.80;99.90;;;;;;4970958;28;20051;-75
2022/09/15 11:11:09;;;;;;;3.72;0.43;;;17.80;99.90;;;;;;4954281;28;20497;-76
2022/09/15 11:13:45;;;;;;;2.00;0.40;;;18.10;99.90;;;;;;4965455;28;20058;-75
2022/09/15 11:16:31;;;;;;;1.52;0.30;;;18.10;99.90;;;;;;4970089;28;20151;-75
2022/09/15 11:19:20;;;;;;;3.13;0.70;;;18.40;99.90;;;;;;4963222;28;20518;-77
2022/09/15 11:21:55;;;;;;;1.90;0.40;;;18.90;99.90;;;;;;4951004;29;20063;-80
2022/09/15 11:24:27;;;;;;;1.88;0.43;;;19.10;99.90;;;;;;4961112;28;20117;-76
2022/09/15 11:27:10;;;;;;;2.97;0.50;;;19.30;99.90;;;;;;4969532;28;20090;-77
2022/09/15 11:30:00;;;;;;;7.35;0.90;;;19.70;99.90;;;;;;4969358;28;20047;-76
2022/09/15 11:32:37;;;;;;;6.60;0.90;;;19.70;99.90;;;;;;4952843;28;20051;-74
2022/09/15 11:35:25;;;;;;;4.90;0.60;;;19.80;99.90;;;;;;4996551;28;20045;-74
2022/09/15 11:37:53;;;;;;;3.97;0.57;;;19.70;99.90;;;;;;5011355;28;20405;-77
2022/09/15 11:40:35;;;;;;;4.60;0.70;;;19.80;99.90;;;;;;5013220;28;20512;-75
2022/09/15 11:43:53;;;;;;;5.60;0.85;;;19.80;99.90;;;;;;5010851;28;20531;-75
2022/09/15 11:46:29;;;;;;;4.35;0.95;;;19.80;99.90;;;;;;4969499;28;20469;-75
2022/09/15 11:49:16;;;;;;;4.20;0.70;;;19.80;99.90;;;;;;4969812;28;20058;-76
2022/09/15 11:51:51;;;;;;;2.55;0.50;;;19.50;99.90;;;;;;4969454;28;20506;-75
2022/09/15 11:54:27;;;;;;;1.65;0.40;;;19.50;99.90;;;;;;4969186;28;20078;-73
2022/09/15 11:56:55;;;;;;;1.73;0.30;;;19.30;99.90;;;;;;4969585;28;20082;-77
2022/09/15 11:59:46;;;;;;;3.65;0.68;;;19.50;99.90;;;;;;4969242;28;20453;-75
2022/09/15 12:02:53;;;;;;;3.13;0.45;;;19.80;99.90;;;;;;4969186;28;20162;-78
2022/09/15 12:05:28;;;;;;;4.88;0.63;;;19.60;99.90;;;;;;4950090;28;20545;-76
2022/09/15 12:08:14;;;;;;;;;;;19.80;99.90;;;;;;4987138;28;20541;-75
2022/09/15 12:10:44;;;;;;;4.38;0.82;;;20.00;99.90;;;;;;4980794;28;19933;-72
2022/09/15 12:13:17;;;;;;;3.90;0.77;;;19.80;99.90;;;;;;4968843;28;20454;-76
2022/09/15 12:15:44;;;;;;;3.85;0.63;;;19.40;99.90;;;;;;4953225;28;20145;-76
2022/09/15 12:18:26;;;;;;;7.68;0.80;;;19.80;99.90;;;;;;4968755;28;20121;-74
2022/09/15 12:20:59;;;;;;;4.55;0.80;;;20.00;99.90;;;;;;4969095;28;20051;-75
2022/09/15 12:23:35;;;;;;;2.75;0.60;;;20.20;99.90;;;;;;5010024;28;20136;-73
2022/09/15 12:26:13;;;;;;;3.15;0.57;;;20.10;99.90;;;;;;5030097;28;20092;-80
2022/09/15 12:28:40;;;;;;;6.15;0.90;;;20.20;99.90;;;;;;5029626;28;20114;-74
2022/09/15 12:31:27;;;;;;;10.20;0.82;;;20.10;99.90;;;;;;5030160;28;20451;-76
2022/09/15 12:34:12;;;;;;;9.93;1.02;;;20.20;99.90;;;;;;5030038;28;20049;-76
2022/09/15 12:36:46;;;;;;;17.55;1.27;;;19.90;99.90;;;;;;5031391;28;20045;-73
2022/09/15 12:39:17;;;;;;;6.78;0.90;;;19.50;99.90;;;;;;5029913;28;20041;-73
2022/09/15 12:41:59;;;;;;;5.35;0.73;;;19.30;99.90;;;;;;5030032;28;20071;-73
2022/09/15 12:44:55;;;;;;;6.18;0.65;;;19.20;99.90;;;;;;5029327;28;20049;-72
2022/09/15 12:47:32;;;;;;;5.43;0.63;;;19.10;99.90;;;;;;5029568;28;20052;-72
2022/09/15 12:50:07;;;;;;;3.10;0.70;;;18.90;99.90;;;;;;5010229;28;20505;-72
2022/09/15 12:52:54;;;;;;;9.57;1.25;;;18.90;99.90;;;;;;5023792;28;20049;-72
2022/09/15 12:55:34;;;;;;;4.00;0.75;;;18.90;99.90;;;;;;5030128;28;20041;-72
2022/09/15 12:58:09;;;;;;;4.97;0.50;;;18.80;99.90;;;;;;5026959;28;20424;-72
2022/09/15 13:00:40;;;;;;;6.50;0.90;;;18.60;99.90;;;;;;5028446;28;20100;-75
2022/09/15 13:03:27;;;;;;;5.35;0.90;;;18.30;99.90;;;;;;5028236;28;20045;-71
2022/09/15 13:06:20;;;;;;;4.03;0.68;;;18.30;99.90;;;;;;5027710;28;20529;-71
2022/09/15 13:09:02;;;;;;;3.63;0.93;;;18.30;99.90;;;;;;5009998;28;20050;-75
2022/09/15 13:11:35;;;;;;;9.15;1.17;;;18.10;99.90;;;;;;5010182;28;20101;-75